Time;durP1;ratioP1;P1;durP2;ratioP2;P2;SDS_P1;SDS_P2;PMS_P1;PMS_P2;Temp;Humidity;BMP_temperature;BMP_pressure;BME280_temperature;BME280_humidity;BME280_pressure;Samples;Min_cycle;Max_cycle;Signal;HPM_P1;HPM_P2
2022/12/10 00:01:59;;;;;;;;;;;0.90;99.90;;;;;;5035389;28;19909;-84
2022/12/10 00:04:25;;;;;;;;;;;0.90;99.90;;;;;;5050003;28;19916;-85
2022/12/10 00:06:50;;;;;;;;;;;0.90;99.90;;;;;;5034009;28;19952;-86
2022/12/10 00:09:17;;;;;;;;;;;0.90;99.90;;;;;;5050150;28;19916;-85
2022/12/10 00:11:42;;;;;;;;;;;0.90;99.90;;;;;;5050217;28;20275;-85
2022/12/10 00:14:08;;;;;;;;;;;0.90;99.90;;;;;;5049577;28;19990;-86
2022/12/10 00:16:34;;;;;;;;;;;0.80;99.90;;;;;;5033549;28;19910;-85
2022/12/10 00:19:00;;;;;;;;;;;0.80;99.90;;;;;;5050070;28;19916;-84
2022/12/10 00:21:28;;;;;;;;;;;0.80;99.90;;;;;;5049578;28;20325;-84
2022/12/10 00:23:54;;;;;;;;;;;0.70;99.90;;;;;;5050206;28;19909;-84
2022/12/10 00:26:21;;;;;;;;;;;0.80;99.90;;;;;;5050332;28;19981;-84
2022/12/10 00:28:47;;;;;;;;;;;0.80;99.90;;;;;;5034875;28;19909;-85
2022/12/10 00:31:14;;;;;;;;;;;0.80;99.90;;;;;;5035573;28;20272;-86
2022/12/10 00:33:40;;;;;;;;;;;0.80;99.90;;;;;;5058745;28;19897;-82
2022/12/10 00:36:25;;;;;;;;;;;0.70;99.90;;;;;;5052228;28;20274;-84
2022/12/10 00:38:50;;;;;;;;;;;0.70;99.90;;;;;;5051814;28;19994;-84
2022/12/10 00:41:16;;;;;;;;;;;0.70;99.90;;;;;;5051228;28;19913;-84
2022/12/10 00:43:42;;;;;;;;;;;0.70;99.90;;;;;;5034847;28;19956;-84
2022/12/10 00:46:08;;;;;;;;;;;0.60;99.90;;;;;;5036175;28;19916;-85
2022/12/10 00:48:34;;;;;;;;;;;0.70;99.90;;;;;;5051722;28;19963;-85
2022/12/10 00:50:59;;;;;;;;;;;0.60;99.90;;;;;;5051235;28;19909;-85
2022/12/10 00:53:25;;;;;;;;;;;0.60;99.90;;;;;;5051448;28;19959;-84
2022/12/10 00:55:51;;;;;;;;;;;0.60;99.90;;;;;;5051616;28;20006;-84
2022/12/10 00:58:17;;;;;;;;;;;0.60;99.90;;;;;;5051764;28;19957;-83
2022/12/10 01:00:42;;;;;;;;;;;0.60;99.90;;;;;;5035051;28;19959;-83
2022/12/10 01:03:08;;;;;;;;;;;0.50;99.90;;;;;;5035984;28;20306;-85
2022/12/10 01:05:33;;;;;;;;;;;0.50;99.90;;;;;;5036404;28;19958;-84
2022/12/10 01:07:59;;;;;;;;;;;0.50;99.90;;;;;;5036224;28;19916;-83
2022/12/10 01:10:24;;;;;;;;;;;0.40;99.90;;;;;;5051786;28;19939;-85
2022/12/10 01:12:49;;;;;;;;;;;0.40;99.90;;;;;;5036246;28;20359;-85
2022/12/10 01:15:15;;;;;;;;;;;0.40;99.90;;;;;;5036408;28;19919;-83
2022/12/10 01:17:40;;;;;;;;;;;0.40;99.90;;;;;;5051921;28;19909;-85
2022/12/10 01:20:06;;;;;;;;;;;0.40;99.90;;;;;;5051805;28;20367;-86
2022/12/10 01:22:32;;;;;;;;;;;0.40;99.90;;;;;;5036108;28;19913;-85
2022/12/10 01:24:57;;;;;;;;;;;0.30;99.90;;;;;;5052081;28;19913;-83
2022/12/10 01:27:23;;;;;;;;;;;0.30;99.90;;;;;;5052055;28;19920;-85
2022/12/10 01:29:48;;;;;;;;;;;0.30;99.90;;;;;;5036574;28;19959;-85
2022/12/10 01:32:13;;;;;;;;;;;0.20;99.90;;;;;;5036109;28;19945;-84
2022/12/10 01:34:39;;;;;;;;;;;0.20;99.90;;;;;;5051556;28;19979;-85
2022/12/10 01:37:04;;;;;;;;;;;0.30;99.90;;;;;;5051963;28;19909;-83
2022/12/10 01:39:30;;;;;;;;;;;0.20;99.90;;;;;;5036511;28;19909;-85
2022/12/10 01:41:57;;;;;;;;;;;0.20;99.90;;;;;;5051436;28;19917;-83
2022/12/10 01:44:22;;;;;;;;;;;0.20;99.90;;;;;;5050918;28;19960;-84
2022/12/10 01:46:49;;;;;;;;;;;0.20;99.90;;;;;;5052254;28;19909;-84
2022/12/10 01:49:19;;;;;;;;;;;0.10;99.90;;;;;;5051797;28;19910;-86
2022/12/10 01:51:46;;;;;;;;;;;0.10;99.90;;;;;;5051752;28;19913;-84
2022/12/10 01:54:16;;;;;;;;;;;0.10;99.90;;;;;;5036336;28;19995;-85
2022/12/10 01:56:43;;;;;;;;;;;0.20;99.90;;;;;;5051711;28;19909;-85
2022/12/10 01:59:09;;;;;;;;;;;0.20;99.90;;;;;;5051811;28;20311;-84
2022/12/10 02:01:40;;;;;;;;;;;0.20;99.90;;;;;;5051735;28;19916;-84
2022/12/10 02:04:19;;;;;;;;;;;0.10;99.90;;;;;;5051507;28;19913;-83
2022/12/10 02:06:48;;;;;;;;;;;0.20;99.90;;;;;;5052127;28;20004;-85
2022/12/10 02:09:33;;;;;;;;;;;0.20;99.90;;;;;;5052114;28;19909;-84
2022/12/10 02:11:59;;;;;;;;;;;0.20;99.90;;;;;;5051973;28;19947;-85
2022/12/10 02:14:30;;;;;;;;;;;0.20;99.90;;;;;;5051790;28;19920;-83
2022/12/10 02:16:58;;;;;;;;;;;0.20;99.90;;;;;;5051959;28;19932;-86
2022/12/10 02:19:43;;;;;;;;;;;0.20;99.90;;;;;;5051680;28;19952;-86
2022/12/10 02:22:09;;;;;;;;;;;0.30;99.90;;;;;;5036410;28;19909;-86
2022/12/10 02:24:36;;;;;;;;;;;0.30;99.90;;;;;;5051566;28;19935;-86
2022/12/10 02:27:10;;;;;;;;;;;0.30;99.90;;;;;;5052137;28;19913;-85
2022/12/10 02:29:36;;;;;;;;;;;0.40;99.90;;;;;;5051356;28;20019;-85
2022/12/10 02:32:07;;;;;;;;;;;0.50;99.90;;;;;;5036267;28;19967;-86
2022/12/10 02:34:35;;;;;;;;;;;0.50;99.90;;;;;;5052171;28;19913;-85
2022/12/10 02:37:03;;;;;;;;;;;0.60;99.90;;;;;;5051898;28;19909;-84
2022/12/10 02:39:33;;;;;;;;;;;0.70;99.90;;;;;;5036533;28;19913;-87
2022/12/10 02:42:00;;;;;;;;;;;0.80;99.90;;;;;;5051525;28;20298;-86
2022/12/10 02:44:27;;;;;;;;;;;0.90;99.90;;;;;;5036137;28;19916;-84
2022/12/10 02:46:54;;;;;;;;;;;1.10;99.90;;;;;;5051255;28;19909;-85
2022/12/10 02:49:20;;;;;;;;;;;1.10;99.90;;;;;;5050983;28;19955;-84
2022/12/10 02:51:46;;;;;;;;;;;1.20;99.90;;;;;;5035731;28;19916;-85
2022/12/10 02:54:30;;;;;;;;;;;1.30;99.90;;;;;;5034078;28;20290;-86
2022/12/10 02:57:00;;;;;;;;;;;1.30;99.90;;;;;;5051362;28;19909;-83
2022/12/10 02:59:43;;;;;;;;;;;1.40;99.90;;;;;;5034353;28;19909;-86
2022/12/10 03:02:14;;;;;;;;;;;1.50;99.90;;;;;;5034047;28;20279;-84
2022/12/10 03:04:48;;;;;;;;;;;1.50;99.90;;;;;;5035499;28;19909;-84
2022/12/10 03:07:27;;;;;;;;;;;1.50;99.90;;;;;;5050889;28;19936;-85
2022/12/10 03:09:55;;;;;;;;;;;1.60;99.90;;;;;;5035864;28;19996;-86
2022/12/10 03:12:35;;;;;;;;;;;1.60;99.90;;;;;;5033634;28;20008;-85
2022/12/10 03:15:03;;;;;;;;;;;1.60;99.90;;;;;;5008671;22;1784879;-85
2022/12/10 03:17:30;;;;;;;;;;;1.70;99.90;;;;;;5074799;28;19915;-85
2022/12/10 03:19:57;;;;;;;;;;;1.70;99.90;;;;;;5090315;28;19909;-85
2022/12/10 03:22:22;;;;;;;;;;;1.80;99.90;;;;;;5089547;28;19915;-84
2022/12/10 03:24:48;;;;;;;;;;;1.80;99.90;;;;;;5074607;28;19908;-86
2022/12/10 03:27:15;;;;;;;;;;;1.80;99.90;;;;;;5074242;28;19997;-86
2022/12/10 03:29:43;;;;;;;;;;;1.80;99.90;;;;;;5073220;28;20372;-84
2022/12/10 03:32:10;;;;;;;;;;;1.90;99.90;;;;;;5072943;28;19909;-84
2022/12/10 03:34:36;;;;;;;;;;;1.90;99.90;;;;;;5078711;28;19964;-86
2022/12/10 03:37:02;;;;;;;;;;;1.90;99.90;;;;;;5075014;28;19913;-85
2022/12/10 03:39:28;;;;;;;;;;;1.90;99.90;;;;;;5073908;28;19963;-84
2022/12/10 03:41:54;;;;;;;;;;;1.90;99.90;;;;;;5074015;28;19908;-85
2022/12/10 03:44:29;;;;;;;;;;;2.00;99.90;;;;;;5072732;28;19909;-84
2022/12/10 03:46:55;;;;;;;;;;;2.00;99.90;;;;;;5073482;28;19909;-85
2022/12/10 03:49:20;;;;;;;;;;;2.00;99.90;;;;;;5072409;28;19916;-84
2022/12/10 03:51:46;;;;;;;;;;;2.10;99.90;;;;;;5072405;28;20278;-85
2022/12/10 03:54:11;;;;;;;;;;;2.10;99.90;;;;;;5072244;28;19912;-84
2022/12/10 03:56:37;;;;;;;;;;;2.10;99.90;;;;;;5073585;28;19908;-84
2022/12/10 03:59:03;;;;;;;;;;;2.10;99.90;;;;;;5072474;28;19912;-86
2022/12/10 04:01:28;;;;;;;;;;;2.10;99.90;;;;;;5073206;28;19908;-84
2022/12/10 04:03:54;;;;;;;;;;;2.10;99.90;;;;;;5089024;28;19912;-85
2022/12/10 04:06:19;;;;;;;;;;;2.20;99.90;;;;;;5075142;28;20358;-84
2022/12/10 04:08:45;;;;;;;;;;;2.10;99.90;;;;;;5093722;28;20372;-86
2022/12/10 04:11:12;;;;;;;;;;;2.10;99.90;;;;;;5076725;28;19963;-86
2022/12/10 04:16:28;;;;;;;;;;;2.10;99.90;;;;;;5078537;28;20321;-83
2022/12/10 04:19:02;;;;;;;;;;;2.20;99.90;;;;;;5093630;28;19908;-83
2022/12/10 04:26:58;;;;;;;;;;;2.10;99.90;;;;;;5078735;28;20411;-85
2022/12/10 04:29:27;;;;;;;;;;;2.10;99.90;;;;;;5077833;28;19909;-85
2022/12/10 04:31:53;;;;;;;;;;;2.10;99.90;;;;;;5093429;28;19919;-84
2022/12/10 04:34:19;;;;;;;;;;;2.10;99.90;;;;;;5078385;28;19913;-85
2022/12/10 04:36:45;;;;;;;;;;;2.00;99.90;;;;;;5078082;28;19931;-84
2022/12/10 04:39:13;;;;;;;;;;;2.00;99.90;;;;;;5077067;28;20434;-85
2022/12/10 04:41:42;;;;;;;;;;;2.00;99.90;;;;;;5077704;28;19964;-84
2022/12/10 04:44:08;;;;;;;;;;;1.90;99.90;;;;;;5076503;28;20021;-86
2022/12/10 04:46:33;;;;;;;;;;;1.90;99.90;;;;;;5077474;28;19999;-85
2022/12/10 04:48:59;;;;;;;;;;;1.90;99.90;;;;;;5077707;28;19909;-83
2022/12/10 04:51:24;;;;;;;;;;;1.90;99.90;;;;;;5077368;28;19909;-85
2022/12/10 04:53:50;;;;;;;;;;;1.90;99.90;;;;;;5077173;28;19908;-84
2022/12/10 04:56:15;;;;;;;;;;;1.90;99.90;;;;;;5077479;28;19909;-84
2022/12/10 04:58:41;;;;;;;;;;;1.90;99.90;;;;;;5066859;28;19920;-85
2022/12/10 05:01:08;;;;;;;;;;;1.90;99.90;;;;;;5055804;28;20553;-84
2022/12/10 05:03:34;;;;;;;;;;;1.90;99.90;;;;;;5057298;28;20282;-85
2022/12/10 05:06:07;;;;;;;;;;;2.00;99.90;;;;;;5055563;28;19908;-84
2022/12/10 05:08:33;;;;;;;;;;;2.00;99.90;;;;;;5057675;28;19913;-84
2022/12/10 05:11:06;;;;;;;;;;;2.00;99.90;;;;;;5056606;28;19909;-85
2022/12/10 05:13:32;;;;;;;;;;;2.00;99.90;;;;;;5055764;28;19909;-85
2022/12/10 05:15:57;;;;;;;;;;;2.00;99.90;;;;;;5072116;28;19940;-84
2022/12/10 05:18:23;;;;;;;;;;;2.00;99.90;;;;;;5057185;28;19999;-85
2022/12/10 05:20:49;;;;;;;;;;;2.00;99.90;;;;;;5055786;28;19909;-85
2022/12/10 05:23:29;;;;;;;;;;;2.00;99.90;;;;;;5055713;28;19909;-86
2022/12/10 05:25:57;;;;;;;;;;;2.00;99.90;;;;;;5057061;28;19916;-84
2022/12/10 05:28:23;;;;;;;;;;;2.00;99.90;;;;;;5055995;28;20374;-84
2022/12/10 05:30:48;;;;;;;;;;;2.00;99.90;;;;;;5056992;28;19915;-84
2022/12/10 05:33:14;;;;;;;;;;;2.00;99.90;;;;;;5056631;28;20370;-85
2022/12/10 05:35:39;;;;;;;;;;;2.10;99.90;;;;;;5055633;28;19962;-84
2022/12/10 05:38:05;;;;;;;;;;;2.10;99.90;;;;;;5071410;28;19971;-83
2022/12/10 05:40:34;;;;;;;;;;;2.10;99.90;;;;;;5054737;28;20030;-83
2022/12/10 05:43:00;;;;;;;;;;;2.10;99.90;;;;;;5054215;28;19908;-84
2022/12/10 05:45:25;;;;;;;;;;;2.10;99.90;;;;;;5054638;28;19909;-85
2022/12/10 05:47:51;;;;;;;;;;;2.10;99.90;;;;;;5057103;28;19913;-84
2022/12/10 05:50:16;;;;;;;;;;;2.10;99.90;;;;;;5071716;28;19927;-83
2022/12/10 05:52:42;;;;;;;;;;;2.10;99.90;;;;;;5056297;28;20309;-86
2022/12/10 05:55:07;;;;;;;;;;;2.10;99.90;;;;;;5054984;28;20366;-86
2022/12/10 05:57:33;;;;;;;;;;;2.10;99.90;;;;;;5055338;28;19995;-84
2022/12/10 05:59:58;;;;;;;;;;;2.10;99.90;;;;;;5055213;28;19915;-85
2022/12/10 06:02:24;;;;;;;;;;;2.10;99.90;;;;;;5055045;28;19908;-85
2022/12/10 06:04:50;;;;;;;;;;;2.10;99.90;;;;;;5054327;28;19908;-84
2022/12/10 06:07:15;;;;;;;;;;;2.10;99.90;;;;;;5055893;28;19955;-83
2022/12/10 06:09:40;;;;;;;;;;;2.10;99.90;;;;;;5056174;28;19912;-84
2022/12/10 06:12:06;;;;;;;;;;;2.10;99.90;;;;;;5071918;28;19909;-86
2022/12/10 06:14:31;;;;;;;;;;;2.10;99.90;;;;;;5071450;28;19923;-85
2022/12/10 06:16:57;;;;;;;;;;;2.10;99.90;;;;;;5055823;28;19963;-84
2022/12/10 06:19:22;;;;;;;;;;;2.10;99.90;;;;;;5056130;28;19913;-86
2022/12/10 06:21:48;;;;;;;;;;;2.00;99.90;;;;;;5056041;28;19966;-85
2022/12/10 06:24:13;;;;;;;;;;;2.00;99.90;;;;;;5054965;28;19908;-84
2022/12/10 06:26:39;;;;;;;;;;;2.00;99.90;;;;;;5056112;28;19909;-85
2022/12/10 06:29:04;;;;;;;;;;;2.00;99.90;;;;;;5053907;28;19915;-85
2022/12/10 06:31:30;;;;;;;;;;;2.00;99.90;;;;;;5054447;28;19915;-85
2022/12/10 06:33:55;;;;;;;;;;;2.00;99.90;;;;;;5071172;28;20393;-85
2022/12/10 06:36:21;;;;;;;;;;;2.00;99.90;;;;;;5071228;28;19908;-84
2022/12/10 06:38:47;;;;;;;;;;;2.00;99.90;;;;;;5055637;28;20000;-85
2022/12/10 06:41:16;;;;;;;;;;;2.00;99.90;;;;;;5055494;28;19913;-85
2022/12/10 06:43:41;;;;;;;;;;;2.00;99.90;;;;;;5054670;28;19909;-85
2022/12/10 06:46:08;;;;;;;;;;;2.00;99.90;;;;;;5055404;28;19916;-84
2022/12/10 06:48:34;;;;;;;;;;;2.00;99.90;;;;;;5054394;28;19999;-86
2022/12/10 06:51:00;;;;;;;;;;;2.00;99.90;;;;;;5070564;28;20027;-83
2022/12/10 06:53:25;;;;;;;;;;;2.00;99.90;;;;;;5054190;28;19908;-85
2022/12/10 06:55:51;;;;;;;;;;;1.90;99.90;;;;;;5053941;28;19917;-85
2022/12/10 06:58:16;;;;;;;;;;;1.70;99.90;;;;;;5054028;28;19927;-83
2022/12/10 07:00:42;;;;;;;;;;;1.70;99.90;;;;;;5055371;28;19909;-86
2022/12/10 07:03:07;;;;;;;;;;;1.70;99.90;;;;;;5053783;28;19909;-84
2022/12/10 07:05:32;;;;;;;;;;;1.70;99.90;;;;;;5053875;28;19916;-85
2022/12/10 07:07:58;;;;;;;;;;;1.70;99.90;;;;;;5053607;28;19916;-85
2022/12/10 07:10:23;;;;;;;;;;;1.70;99.90;;;;;;5070034;28;20354;-85
2022/12/10 07:12:49;;;;;;;;;;;1.70;99.90;;;;;;5052661;28;19916;-84
2022/12/10 07:15:14;;;;;;;;;;;1.70;99.90;;;;;;5052201;28;19956;-85
2022/12/10 07:17:40;;;;;;;;;;;1.70;99.90;;;;;;5053191;28;20363;-85
2022/12/10 07:20:06;;;;;;;;;;;1.70;99.90;;;;;;5053073;28;19916;-85
2022/12/10 07:22:31;;;;;;;;;;;1.70;99.90;;;;;;5052763;28;20011;-85
2022/12/10 07:24:57;;;;;;;;;;;1.70;99.90;;;;;;5052724;28;19908;-83
2022/12/10 07:27:22;;;;;;;;;;;1.60;99.90;;;;;;5054635;28;19920;-83
2022/12/10 07:29:48;;;;;;;;;;;1.40;99.90;;;;;;5052883;28;19909;-84
2022/12/10 07:32:13;;;;;;;;;;;1.30;99.90;;;;;;5054201;28;19915;-84
2022/12/10 07:34:38;;;;;;;;;;;1.30;99.90;;;;;;5054055;28;19913;-86
2022/12/10 07:37:04;;;;;;;;;;;1.30;99.90;;;;;;5069489;28;20267;-84
2022/12/10 07:39:29;;;;;;;;;;;1.40;99.90;;;;;;5054284;28;19909;-85
2022/12/10 07:41:55;;;;;;;;;;;1.40;99.90;;;;;;5052872;28;19909;-84
2022/12/10 07:44:22;;;;;;;;;;;1.40;99.90;;;;;;5053178;28;19916;-85
2022/12/10 07:46:48;;;;;;;;;;;1.50;99.90;;;;;;5054356;28;19908;-83
2022/12/10 07:49:14;;;;;;;;;;;1.50;99.90;;;;;;5052763;28;20362;-84
2022/12/10 07:51:43;;;;;;;;;;;1.40;99.90;;;;;;5053116;28;19916;-83
2022/12/10 07:54:08;;;;;;;;;;;1.40;99.90;;;;;;5053293;28;19913;-85
2022/12/10 07:56:34;;;;;;;;;;;1.30;99.90;;;;;;5053507;28;19908;-84
2022/12/10 07:58:59;;;;;;;;;;;1.40;99.90;;;;;;5053497;28;19966;-85
2022/12/10 08:01:25;;;;;;;;;;;1.40;99.90;;;;;;5053578;28;19951;-85
2022/12/10 08:03:52;;;;;;;;;;;1.50;99.90;;;;;;5052805;28;20378;-85
2022/12/10 08:06:18;;;;;;;;;;;1.60;99.90;;;;;;5054363;28;20263;-84
2022/12/10 08:08:44;;;;;;;;;;;1.60;99.90;;;;;;5054790;28;19908;-84
2022/12/10 08:11:10;;;;;;;;;;;1.70;99.90;;;;;;5052055;28;19931;-83
2022/12/10 08:13:36;;;;;;;;;;;1.70;99.90;;;;;;5052140;28;19909;-83
2022/12/10 08:16:06;;;;;;;;;;;1.70;99.90;;;;;;5053155;28;20428;-83
2022/12/10 08:18:32;;;;;;;;;;;1.80;99.90;;;;;;5051865;28;19909;-84
2022/12/10 08:20:58;;;;;;;;;;;1.80;99.90;;;;;;5052942;28;19980;-83
2022/12/10 08:23:23;;;;;;;;;;;1.80;99.90;;;;;;5053702;28;19979;-86
2022/12/10 08:25:49;;;;;;;;;;;1.80;99.90;;;;;;5054385;28;19916;-84
2022/12/10 08:28:15;;;;;;;;;;;1.80;99.90;;;;;;5052864;28;19999;-86
2022/12/10 08:30:44;;;;;;;;;;;1.80;99.90;;;;;;5054333;28;20287;-87
2022/12/10 08:33:10;;;;;;;;;;;1.80;99.90;;;;;;5053882;28;19916;-85
2022/12/10 08:35:35;;;;;;;;;;;1.80;99.90;;;;;;5054324;28;19921;-85
2022/12/10 08:38:01;;;;;;;;;;;1.90;99.90;;;;;;5054799;28;20263;-85
2022/12/10 08:40:26;;;;;;;;;;;2.00;99.90;;;;;;5052709;28;19931;-86
2022/12/10 08:42:52;;;;;;;;;;;2.00;99.90;;;;;;5052620;28;19920;-84
2022/12/10 08:45:17;;;;;;;;;;;2.00;99.90;;;;;;5052254;28;20000;-83
2022/12/10 08:47:43;;;;;;;;;;;1.90;99.90;;;;;;5053308;28;20354;-84
2022/12/10 08:50:09;;;;;;;;;;;2.00;99.90;;;;;;5053881;28;19916;-86
2022/12/10 08:52:34;;;;;;;;;;;1.90;99.90;;;;;;5054745;28;20354;-85
2022/12/10 08:55:00;;;;;;;;;;;1.90;99.90;;;;;;5056363;28;20062;-86
2022/12/10 08:57:25;;;;;;;;;;;2.00;99.90;;;;;;5056330;28;19908;-86
2022/12/10 08:59:50;;;;;;;;;;;2.00;99.90;;;;;;5055841;28;19920;-85
2022/12/10 09:02:16;;;;;;;;;;;2.10;99.90;;;;;;5056752;28;19909;-84
2022/12/10 09:04:42;;;;;;;;;;;2.10;99.90;;;;;;5071845;28;19952;-85
2022/12/10 09:07:07;;;;;;;;;;;2.00;99.90;;;;;;5056754;28;19915;-84
2022/12/10 09:09:33;;;;;;;;;;;2.10;99.90;;;;;;5057181;28;20382;-85
2022/12/10 09:11:58;;;;;;;;;;;2.20;99.90;;;;;;5055851;28;19915;-85
2022/12/10 09:14:24;;;;;;;;;;;2.20;99.90;;;;;;5056077;28;20016;-83
2022/12/10 09:16:49;;;;;;;;;;;2.20;99.90;;;;;;5056464;28;19909;-84
2022/12/10 09:19:15;;;;;;;;;;;2.20;99.90;;;;;;5056281;28;19908;-84
2022/12/10 09:21:40;;;;;;;;;;;2.30;99.90;;;;;;5054540;28;20349;-83
2022/12/10 09:24:06;;;;;;;;;;;2.40;99.90;;;;;;5054717;28;19943;-85
2022/12/10 09:26:31;;;;;;;;;;;2.40;99.90;;;;;;5049415;28;19921;-85
2022/12/10 09:28:57;;;;;;;;;;;2.40;99.90;;;;;;5061009;28;19923;-85
2022/12/10 09:31:23;;;;;;;;;;;2.60;99.90;;;;;;5059681;28;19909;-85
2022/12/10 09:33:50;;;;;;;;;;;2.50;99.90;;;;;;5072303;28;19909;-86
2022/12/10 09:36:15;;;;;;;;;;;2.60;99.90;;;;;;5072109;28;19909;-87
2022/12/10 09:38:42;;;;;;;;;;;2.60;99.90;;;;;;5071695;28;19909;-87
2022/12/10 09:41:10;;;;;;;;;;;2.70;99.90;;;;;;5070556;28;20000;-88
2022/12/10 09:43:54;;;;;;;;;;;2.70;99.90;;;;;;5056069;28;20270;-86
2022/12/10 09:46:42;;;;;;;;;;;2.70;99.90;;;;;;5070843;28;19958;-86
2022/12/10 09:49:20;;;;;;;;;;;2.80;99.90;;;;;;5071135;28;19915;-85
2022/12/10 09:51:46;;;;;;;;;;;2.80;99.90;;;;;;5070215;28;19908;-85
2022/12/10 09:54:17;;;;;;;;;;;2.80;99.90;;;;;;5070290;28;20397;-86
2022/12/10 09:56:43;;;;;;;;;;;2.80;99.90;;;;;;5055556;28;19920;-84
2022/12/10 09:59:17;;;;;;;;;;;2.80;99.90;;;;;;5062737;28;19912;-86
2022/12/10 10:01:43;;;;;;;;;;;2.70;99.90;;;;;;5067941;28;20405;-86
2022/12/10 10:04:08;;;;;;;;;;;2.80;99.90;;;;;;5072475;28;19920;-86
2022/12/10 10:06:34;;;;;;;;;;;2.80;99.90;;;;;;5073761;28;19908;-86
2022/12/10 10:09:01;;;;;;;;;;;2.90;99.90;;;;;;5075288;28;20301;-85
2022/12/10 10:11:28;;;;;;;;;;;2.90;99.90;;;;;;5074984;28;20395;-86
2022/12/10 10:14:14;;;;;;;;;;;2.90;99.90;;;;;;5073448;28;20004;-84
2022/12/10 10:16:45;;;;;;;;;;;2.90;99.90;;;;;;5074751;28;20492;-86
2022/12/10 10:19:38;;;;;;;;;;;2.90;99.90;;;;;;5075595;28;19940;-86
2022/12/10 10:22:04;;;;;;;;;;;2.90;99.90;;;;;;5053123;28;19915;-84
2022/12/10 10:24:34;;;;;;;;;;;3.00;99.90;;;;;;5052427;28;20343;-84
2022/12/10 10:27:10;;;;;;;;;;;2.90;99.90;;;;;;5060356;28;20554;-86
2022/12/10 10:29:35;;;;;;;;;;;3.00;99.90;;;;;;5069667;28;19920;-85
2022/12/10 10:32:20;;;;;;;;;;;3.00;99.90;;;;;;5060720;28;20305;-83
2022/12/10 10:34:51;;;;;;;;;;;3.10;99.90;;;;;;5048412;28;19971;-84
2022/12/10 10:37:40;;;;;;;;;;;3.20;99.90;;;;;;5059854;28;20385;-84
2022/12/10 10:40:06;;;;;;;;;;;3.20;99.90;;;;;;5040074;28;19908;-87
2022/12/10 10:42:39;;;;;;;;;;;3.30;99.90;;;;;;5064459;28;19962;-83
2022/12/10 10:45:06;;;;;;;;;;;3.30;99.90;;;;;;5062463;28;19912;-85
2022/12/10 10:47:33;;;;;;;;;;;3.30;99.90;;;;;;5070347;28;19909;-86
2022/12/10 10:49:59;;;;;;;;;;;3.20;99.90;;;;;;5054298;28;19919;-86
2022/12/10 10:52:27;;;;;;;;;;;3.20;99.90;;;;;;5052091;28;20115;-87
2022/12/10 10:54:53;;;;;;;;;;;3.30;99.90;;;;;;5069122;28;19955;-86
2022/12/10 10:57:37;;;;;;;;;;;3.30;99.90;;;;;;5069213;28;19908;-86
2022/12/10 11:00:05;;;;;;;;;;;3.30;99.90;;;;;;5052255;28;19913;-82
2022/12/10 11:02:31;;;;;;;;;;;3.40;99.90;;;;;;5068491;28;19909;-84
2022/12/10 11:04:59;;;;;;;;;;;3.40;99.90;;;;;;5053540;28;20004;-87
2022/12/10 11:07:38;;;;;;;;;;;3.30;99.90;;;;;;5053362;28;20381;-84
2022/12/10 11:10:16;;;;;;;;;;;3.30;99.90;;;;;;5052368;28;19909;-87
2022/12/10 11:12:41;;;;;;;;;;;3.20;99.90;;;;;;5068638;28;19944;-84
2022/12/10 11:15:22;;;;;;;;;;;3.20;99.90;;;;;;5067984;28;20018;-86
2022/12/10 11:17:52;;;;;;;;;;;3.20;99.90;;;;;;5068952;28;20019;-84
2022/12/10 11:20:26;;;;;;;;;;;3.10;99.90;;;;;;5033664;28;19917;-85
2022/12/10 11:22:56;;;;;;;;;;;3.10;99.90;;;;;;5032151;28;20594;-85
2022/12/10 11:25:30;;;;;;;;;;;3.10;99.90;;;;;;5033364;28;19920;-84
2022/12/10 11:28:02;;;;;;;;;;;3.20;99.90;;;;;;5035936;28;19909;-84
2022/12/10 11:30:31;;;;;;;;;;;3.30;99.90;;;;;;5057531;28;19915;-83
2022/12/10 11:33:20;;;;;;;;;;;3.20;99.90;;;;;;5064684;28;19909;-86
2022/12/10 11:36:06;;;;;;;;;;;3.10;99.90;;;;;;5072474;28;19965;-87
2022/12/10 11:38:44;;;;;;;;;;;3.20;99.90;;;;;;5073298;28;19908;-86
2022/12/10 11:41:16;;;;;;;;;;;3.30;99.90;;;;;;5071488;28;19909;-84
2022/12/10 11:43:45;;;;;;;;;;;3.40;99.90;;;;;;5059803;28;19909;-85
2022/12/10 11:46:29;;;;;;;;;;;3.50;99.90;;;;;;5053281;28;19958;-87
2022/12/10 11:48:57;;;;;;;;;;;3.50;99.90;;;;;;5052607;28;19908;-87
2022/12/10 11:51:27;;;;;;;;;;;3.50;99.90;;;;;;5052711;28;19963;-85
2022/12/10 11:53:58;;;;;;;;;;;3.40;99.90;;;;;;5052629;28;20336;-86
2022/12/10 11:56:30;;;;;;;;;;;3.50;99.90;;;;;;5055042;28;19912;-86
2022/12/10 11:59:04;;;;;;;;;;;3.40;99.90;;;;;;5063805;28;19909;-85
2022/12/10 12:01:51;;;;;;;;;;;3.50;99.90;;;;;;5051959;28;19909;-87
2022/12/10 12:04:22;;;;;;;;;;;3.50;99.90;;;;;;5051799;28;19908;-86
2022/12/10 12:07:01;;;;;;;;;;;3.60;99.90;;;;;;5053077;28;20419;-88
2022/12/10 12:09:38;;;;;;;;;;;3.70;99.90;;;;;;5052973;28;19992;-85
2022/12/10 12:12:15;;;;;;;;;;;3.70;99.90;;;;;;5051682;28;19908;-85
2022/12/10 12:14:41;;;;;;;;;;;3.80;99.90;;;;;;5052720;28;19916;-84
2022/12/10 12:17:18;;;;;;;;;;;3.90;99.90;;;;;;5053443;28;19931;-85
2022/12/10 12:19:46;;;;;;;;;;;3.90;99.90;;;;;;5050992;28;20008;-84
2022/12/10 12:22:17;;;;;;;;;;;3.80;99.90;;;;;;5050680;28;19916;-84
2022/12/10 12:24:46;;;;;;;;;;;3.80;99.90;;;;;;5051138;28;20412;-84
2022/12/10 12:27:25;;;;;;;;;;;3.90;99.90;;;;;;5052176;28;20066;-85
2022/12/10 12:30:00;;;;;;;;;;;4.00;99.90;;;;;;5056001;28;19919;-85
2022/12/10 12:32:29;;;;;;;;;;;4.10;99.90;;;;;;5054445;28;19916;-84
2022/12/10 12:34:58;;;;;;;;;;;4.10;99.90;;;;;;5056079;28;19917;-85
2022/12/10 12:37:27;;;;;;;;;;;4.10;99.90;;;;;;5071564;28;19915;-85
2022/12/10 12:40:14;;;;;;;;;;;4.20;99.90;;;;;;5056319;28;19913;-84
2022/12/10 12:43:12;;;;;;;;;;;4.30;99.90;;;;;;5054682;28;19909;-84
2022/12/10 12:45:39;;;;;;;;;;;4.30;99.90;;;;;;5032396;28;19908;-84
2022/12/10 12:48:14;;;;;;;;;;;4.30;99.90;;;;;;5054671;28;19908;-85
2022/12/10 12:50:51;;;;;;;;;;;4.30;99.90;;;;;;5054529;28;20317;-85
2022/12/10 12:53:17;;;;;;;;;;;4.30;99.90;;;;;;5054136;28;20391;-85
2022/12/10 12:55:52;;;;;;;;;;;4.40;99.90;;;;;;5054374;28;19912;-85
2022/12/10 12:58:36;;;;;;;;;;;4.40;99.90;;;;;;5055876;28;20366;-85
2022/12/10 13:01:20;;;;;;;;;;;4.30;99.90;;;;;;5054373;28;19931;-86
2022/12/10 13:03:48;;;;;;;;;;;4.20;99.90;;;;;;5071665;28;19916;-86
2022/12/10 13:06:17;;;;;;;;;;;4.00;99.90;;;;;;5054227;28;19913;-87
2022/12/10 13:08:51;;;;;;;;;;;3.90;99.90;;;;;;5056074;28;19996;-86
2022/12/10 13:11:18;;;;;;;;;;;3.90;99.90;;;;;;5055718;28;19908;-87
2022/12/10 13:14:02;;;;;;;;;;;4.00;99.90;;;;;;5054754;28;19909;-86
2022/12/10 13:16:37;;;;;;;;;;;4.00;99.90;;;;;;5054664;28;19917;-86
2022/12/10 13:19:29;;;;;;;;;;;4.00;99.90;;;;;;5056246;28;20350;-85
2022/12/10 13:21:59;;;;;;;;;;;4.00;99.90;;;;;;5052764;28;19931;-86
2022/12/10 13:24:37;;;;;;;;;;;4.10;99.90;;;;;;5055188;28;19916;-85
2022/12/10 13:27:02;;;;;;;;;;;4.20;99.90;;;;;;5038836;28;19952;-86
2022/12/10 13:29:28;;;;;;;;;;;4.30;99.90;;;;;;5034612;28;19932;-85
2022/12/10 13:32:01;;;;;;;;;;;4.40;99.90;;;;;;5035110;28;19932;-86
2022/12/10 13:34:31;;;;;;;;;;;4.30;99.90;;;;;;5035337;28;19913;-88
2022/12/10 13:37:00;;;;;;;;;;;4.20;99.90;;;;;;5034164;28;19948;-83
2022/12/10 13:39:25;;;;;;;;;;;4.40;99.90;;;;;;5033917;28;19952;-88
2022/12/10 13:44:59;;;;;;;;;;;4.50;99.90;;;;;;5036091;28;20282;-87
2022/12/10 13:47:34;;;;;;;;;;;4.60;99.90;;;;;;5034577;28;19913;-87
2022/12/10 13:50:20;;;;;;;;;;;4.60;99.90;;;;;;5036114;28;19963;-85
2022/12/10 13:53:01;;;;;;;;;;;4.60;99.90;;;;;;5050588;28;19909;-86
2022/12/10 13:55:46;;;;;;;;;;;4.50;99.90;;;;;;5050656;28;20321;-87
2022/12/10 13:58:18;;;;;;;;;;;4.60;99.90;;;;;;5058040;28;19916;-88
2022/12/10 14:00:53;;;;;;;;;;;4.40;99.90;;;;;;5075374;28;19931;-87
2022/12/10 14:03:19;;;;;;;;;;;4.30;99.90;;;;;;5074944;28;19915;-88
2022/12/10 14:05:56;;;;;;;;;;;4.20;99.90;;;;;;5073069;28;20413;-87
2022/12/10 14:08:34;;;;;;;;;;;4.10;99.90;;;;;;5073977;28;19920;-86
2022/12/10 14:10:59;;;;;;;;;;;4.00;99.90;;;;;;5073760;28;20400;-87
2022/12/10 14:13:33;;;;;;;;;;;3.90;99.90;;;;;;5075820;28;19908;-86
2022/12/10 14:16:00;;;;;;;;;;;3.80;99.90;;;;;;5086036;28;19966;-83
2022/12/10 14:18:27;;;;;;;;;;;3.70;99.90;;;;;;5097119;28;19896;-84
2022/12/10 14:20:53;;;;;;;;;;;3.70;99.90;;;;;;5073265;28;20003;-84
2022/12/10 14:23:34;;;;;;;;;;;3.70;99.90;;;;;;5074206;28;19908;-84
2022/12/10 14:26:11;;;;;;;;;;;3.70;99.90;;;;;;5073053;28;20007;-85
2022/12/10 14:28:38;;;;;;;;;;;3.70;99.90;;;;;;5073471;28;19909;-84
2022/12/10 14:31:06;;;;;;;;;;;3.70;99.90;;;;;;5072403;28;20388;-85
2022/12/10 14:33:31;;;;;;;;;;;3.60;99.90;;;;;;5074173;28;19909;-85
2022/12/10 14:35:58;;;;;;;;;;;3.50;99.90;;;;;;5072541;28;19912;-86
2022/12/10 14:38:29;;;;;;;;;;;3.50;99.90;;;;;;5073152;28;19951;-85
2022/12/10 14:40:54;;;;;;;;;;;3.50;99.90;;;;;;5073303;28;19909;-86
2022/12/10 14:43:21;;;;;;;;;;;3.50;99.90;;;;;;5073347;28;19995;-85
2022/12/10 14:45:48;;;;;;;;;;;3.50;99.90;;;;;;5075355;28;20469;-85
2022/12/10 14:48:16;;;;;;;;;;;3.60;99.90;;;;;;5076962;28;19908;-84
2022/12/10 14:50:42;;;;;;;;;;;3.50;99.90;;;;;;5088999;28;20301;-87
2022/12/10 14:53:18;;;;;;;;;;;3.50;99.90;;;;;;5073912;28;19944;-86